createdAt,value
2023-03-07T00:00:18.955Z,0.75
2023-03-07T00:02:51.769Z,0.25
2023-03-07T00:05:19.580Z,0.75
2023-03-07T00:07:47.190Z,1.00
2023-03-07T00:10:14.956Z,0.00
2023-03-07T00:12:42.620Z,0.00
2023-03-07T00:15:11.024Z,0.00
2023-03-07T00:17:39.315Z,0.75
2023-03-07T00:20:08.946Z,1.00
2023-03-07T00:22:36.618Z,0.75
2023-03-07T00:25:05.148Z,1.00
2023-03-07T00:27:34.350Z,1.00
2023-03-07T00:30:02.824Z,1.00
2023-03-07T00:32:30.846Z,0.25
2023-03-07T00:35:00.095Z,0.75
2023-03-07T00:37:27.908Z,3.00
2023-03-07T00:39:55.462Z,1.00
2023-03-07T00:42:23.157Z,1.00
2023-03-07T00:44:50.985Z,1.00
2023-03-07T00:47:18.638Z,1.00
2023-03-07T00:49:46.346Z,0.25
2023-03-07T00:52:14.075Z,1.00
2023-03-07T00:54:41.777Z,1.00
2023-03-07T00:57:09.825Z,2.50
2023-03-07T00:59:38.038Z,0.75
2023-03-07T01:02:05.501Z,1.50
2023-03-07T01:04:33.135Z,1.00
2023-03-07T01:07:00.878Z,2.50
2023-03-07T01:09:28.676Z,1.00
2023-03-07T01:11:56.549Z,0.00
2023-03-07T01:14:25.922Z,1.00
2023-03-07T01:16:53.814Z,0.75
2023-03-07T01:19:21.631Z,2.00
2023-03-07T01:21:49.214Z,1.00
2023-03-07T01:24:18.206Z,0.25
2023-03-07T01:26:45.836Z,0.75
2023-03-07T01:29:13.480Z,1.00
2023-03-07T01:31:41.111Z,2.00
2023-03-07T01:34:08.874Z,0.50
2023-03-07T01:36:37.952Z,0.75
2023-03-07T01:39:10.689Z,3.00
2023-03-07T01:41:43.315Z,3.00
2023-03-07T01:44:15.273Z,1.50
2023-03-07T01:46:46.159Z,1.00
2023-03-07T01:49:38.556Z,1.00
2023-03-07T01:52:23.417Z,0.75
2023-03-07T01:55:03.548Z,0.75
2023-03-07T01:57:38.352Z,0.25
2023-03-07T02:00:11.145Z,1.00
2023-03-07T02:02:46.202Z,1.50
2023-03-07T02:05:41.166Z,3.00
2023-03-07T02:08:12.008Z,1.00
2023-03-07T02:10:41.987Z,2.00
2023-03-07T02:13:10.488Z,0.00
2023-03-07T02:15:39.157Z,2.50
2023-03-07T02:18:07.981Z,1.00
2023-03-07T02:20:54.162Z,2.50
2023-03-07T02:23:48.668Z,1.00
2023-03-07T02:26:31.696Z,2.33
2023-03-07T02:29:01.666Z,2.33
2023-03-07T02:31:30.859Z,0.00
2023-03-07T02:34:02.203Z,2.50
2023-03-07T02:36:34.777Z,1.00
2023-03-07T02:39:19.656Z,0.00
2023-03-07T02:41:47.875Z,1.00
2023-03-07T02:44:24.282Z,3.00
2023-03-07T02:46:51.942Z,1.00
2023-03-07T02:49:20.706Z,2.33
2023-03-07T02:51:48.398Z,3.00
2023-03-07T02:54:15.884Z,1.00
2023-03-07T02:56:43.988Z,0.67
2023-03-07T02:59:11.705Z,3.00
2023-03-07T03:01:39.544Z,3.00
2023-03-07T03:04:07.200Z,3.67
2023-03-07T03:06:36.380Z,3.67
2023-03-07T03:09:04.354Z,1.67
2023-03-07T03:11:32.792Z,3.00
2023-03-07T03:14:00.822Z,0.00
2023-03-07T03:16:29.807Z,0.00
2023-03-07T03:18:57.726Z,0.33
2023-03-07T03:21:26.072Z,1.00
2023-03-07T03:23:53.684Z,0.00
2023-03-07T03:26:21.655Z,1.00
2023-03-07T03:28:49.676Z,1.00
2023-03-07T03:31:17.355Z,1.50
2023-03-07T03:33:45.100Z,1.00
2023-03-07T03:36:17.543Z,4.67
2023-03-07T03:38:47.909Z,1.67
2023-03-07T03:41:16.282Z,1.00
2023-03-07T03:43:45.394Z,0.00
2023-03-07T03:46:13.244Z,1.00
2023-03-07T03:48:41.121Z,1.00
2023-03-07T03:51:17.307Z,1.67
2023-03-07T03:53:45.031Z,3.00
2023-03-07T03:56:15.950Z,3.00
2023-03-07T03:58:44.153Z,2.50
2023-03-07T04:01:12.843Z,3.00
2023-03-07T04:03:43.664Z,0.50
2023-03-07T04:06:13.944Z,4.00
2023-03-07T04:08:42.103Z,2.00
2023-03-07T04:11:09.853Z,0.00
2023-03-07T04:13:37.418Z,3.00
2023-03-07T04:16:05.848Z,1.50
2023-03-07T04:18:35.473Z,1.00
2023-03-07T04:21:05.458Z,3.25
2023-03-07T04:23:33.611Z,2.00
2023-03-07T04:26:03.642Z,0.00
2023-03-07T04:28:45.645Z,1.50
2023-03-07T04:31:36.251Z,0.00
2023-03-07T04:34:05.432Z,0.00
2023-03-07T04:36:33.868Z,1.50
2023-03-07T04:39:01.779Z,1.00
2023-03-07T04:41:30.307Z,0.75
2023-03-07T04:44:02.121Z,3.00
2023-03-07T04:46:30.466Z,3.00
2023-03-07T04:48:58.032Z,1.00
2023-03-07T04:51:25.976Z,0.00
2023-03-07T04:53:53.322Z,0.00
2023-03-07T04:56:20.741Z,2.00
2023-03-07T04:58:48.332Z,0.25
2023-03-07T05:01:17.990Z,0.00
2023-03-07T05:03:45.828Z,0.50
2023-03-07T05:06:15.810Z,1.50
2023-03-07T05:08:47.726Z,0.00
2023-03-07T05:11:15.443Z,1.50
2023-03-07T05:13:43.129Z,1.00
2023-03-07T05:16:11.230Z,1.00
2023-03-07T05:18:39.254Z,0.50
2023-03-07T05:21:06.882Z,0.50
2023-03-07T05:23:34.353Z,1.00
2023-03-07T05:26:02.100Z,0.00
2023-03-07T05:28:29.637Z,1.00
2023-03-07T05:30:57.438Z,1.00
2023-03-07T05:33:25.733Z,1.67
2023-03-07T05:35:55.744Z,18.50
2023-03-07T05:38:23.897Z,4.67
2023-03-07T05:40:51.167Z,0.00
2023-03-07T05:43:18.708Z,3.25
2023-03-07T05:45:46.192Z,3.75
2023-03-07T05:48:13.806Z,3.25
2023-03-07T05:50:42.900Z,1.50
2023-03-07T05:53:10.863Z,2.50
2023-03-07T05:55:38.584Z,3.50
2023-03-07T05:58:06.561Z,2.50
2023-03-07T06:00:34.319Z,9.00
2023-03-07T06:03:03.442Z,3.00
2023-03-07T06:05:32.274Z,1.00
2023-03-07T06:07:59.811Z,2.50
2023-03-07T06:10:27.484Z,4.00
2023-03-07T06:12:55.701Z,1.00
2023-03-07T06:15:24.829Z,3.00
2023-03-07T06:17:59.763Z,0.80
2023-03-07T06:20:27.409Z,2.20
2023-03-07T06:22:56.097Z,2.20
2023-03-07T06:25:23.442Z,3.60
2023-03-07T06:27:50.925Z,4.80
2023-03-07T06:30:18.291Z,1.40
2023-03-07T06:32:45.896Z,2.80
2023-03-07T06:35:13.387Z,2.00
2023-03-07T06:37:40.977Z,4.60
2023-03-07T06:40:10.971Z,2.00
2023-03-07T06:42:39.863Z,3.20
2023-03-07T06:45:09.191Z,4.00
2023-03-07T06:47:36.690Z,1.80
2023-03-07T06:50:06.309Z,0.00
2023-03-07T06:52:35.073Z,2.60
2023-03-07T06:55:03.747Z,3.80
2023-03-07T06:57:34.245Z,2.00
2023-03-07T07:00:07.111Z,2.00
2023-03-07T07:02:34.855Z,1.00
2023-03-07T07:05:03.337Z,2.80
2023-03-07T07:07:31.025Z,2.00
2023-03-07T07:09:59.850Z,1.00
2023-03-07T07:12:27.419Z,0.60
2023-03-07T07:14:55.858Z,2.20
2023-03-07T07:17:24.106Z,3.00
2023-03-07T07:19:51.593Z,2.00
2023-03-07T07:22:19.034Z,3.80
2023-03-07T07:24:46.428Z,3.40
2023-03-07T07:27:13.985Z,3.80
2023-03-07T07:29:41.580Z,3.00
2023-03-07T07:32:10.388Z,3.40
2023-03-07T07:34:38.826Z,3.40
2023-03-07T07:37:07.207Z,4.60
2023-03-07T07:39:35.198Z,0.20
2023-03-07T07:42:03.296Z,2.40
2023-03-07T07:44:38.138Z,2.60
2023-03-07T07:47:10.767Z,3.80
2023-03-07T07:49:38.409Z,3.60
2023-03-07T07:52:06.176Z,2.80
2023-03-07T07:54:33.787Z,0.00
2023-03-07T07:57:01.271Z,4.20
2023-03-07T07:59:29.206Z,3.00
2023-03-07T08:01:56.808Z,3.40
2023-03-07T08:04:24.477Z,3.00
2023-03-07T08:06:52.740Z,3.20
2023-03-07T08:09:20.427Z,3.00
2023-03-07T08:11:48.698Z,1.80
2023-03-07T08:14:16.155Z,2.00
2023-03-07T08:16:43.942Z,2.00
2023-03-07T08:19:11.647Z,2.20
2023-03-07T08:21:40.299Z,2.20
2023-03-07T08:24:07.965Z,1.00
2023-03-07T08:26:35.584Z,1.80
2023-03-07T08:29:03.702Z,2.20
2023-03-07T08:31:31.422Z,1.60
2023-03-07T08:33:58.981Z,1.40
2023-03-07T08:36:26.751Z,2.00
2023-03-07T08:38:54.307Z,3.00
2023-03-07T08:41:23.131Z,2.40
2023-03-07T08:43:50.966Z,2.00
2023-03-07T08:46:18.619Z,2.00
2023-03-07T08:48:46.426Z,1.40
2023-03-07T08:51:16.482Z,2.00
2023-03-07T08:53:45.140Z,1.00
2023-03-07T08:56:17.996Z,2.00
2023-03-07T08:58:46.024Z,1.80
2023-03-07T09:01:13.703Z,2.00
2023-03-07T09:03:43.034Z,1.00
2023-03-07T09:06:17.289Z,0.00
2023-03-07T09:08:45.257Z,2.00
2023-03-07T09:11:13.732Z,2.00
2023-03-07T09:13:51.517Z,2.20
2023-03-07T09:16:20.682Z,2.40
2023-03-07T09:18:48.447Z,1.80
2023-03-07T09:21:16.081Z,0.20
2023-03-07T09:23:44.337Z,0.00
2023-03-07T09:26:12.113Z,0.00
2023-03-07T09:28:46.593Z,1.00
2023-03-07T09:31:15.534Z,1.80
2023-03-07T09:33:45.687Z,1.20
2023-03-07T09:36:15.027Z,1.60
2023-03-07T09:38:42.699Z,1.80
2023-03-07T09:41:18.604Z,0.60
2023-03-07T09:44:15.222Z,0.00
2023-03-07T09:47:11.193Z,0.00
2023-03-07T09:49:47.328Z,1.00
2023-03-07T09:52:19.329Z,1.40
2023-03-07T09:54:56.213Z,0.00
2023-03-07T09:57:51.770Z,1.00
2023-03-07T10:00:36.991Z,1.00
2023-03-07T10:03:26.894Z,1.00
2023-03-07T10:05:59.626Z,1.80
2023-03-07T10:08:33.334Z,2.00
2023-03-07T10:11:19.106Z,1.00
2023-03-07T10:14:33.233Z,1.20
2023-03-07T10:17:37.328Z,0.80
2023-03-07T10:20:32.476Z,1.40
2023-03-07T10:23:37.224Z,1.00
2023-03-07T10:26:23.592Z,0.80
2023-03-07T10:28:51.829Z,2.00
2023-03-07T10:31:38.211Z,3.00
2023-03-07T10:34:32.038Z,1.80
2023-03-07T10:37:15.267Z,0.20
2023-03-07T10:39:56.903Z,1.00
2023-03-07T10:42:27.837Z,1.80
2023-03-07T10:44:55.412Z,2.00
2023-03-07T10:47:26.897Z,1.80
2023-03-07T10:50:24.023Z,1.40
2023-03-07T10:52:57.978Z,0.80
2023-03-07T10:55:42.555Z,3.80
2023-03-07T10:58:29.440Z,2.80
2023-03-07T11:01:03.990Z,1.20
2023-03-07T11:03:52.208Z,4.20
2023-03-07T11:06:36.186Z,4.60
2023-03-07T11:09:18.918Z,1.00
2023-03-07T11:11:56.942Z,3.20
2023-03-07T11:14:26.792Z,2.40
2023-03-07T11:17:01.543Z,1.40
2023-03-07T11:19:35.246Z,2.00
2023-03-07T11:22:18.401Z,2.00
2023-03-07T11:24:56.520Z,3.60
2023-03-07T11:27:38.641Z,3.80
2023-03-07T11:30:30.036Z,1.80
2023-03-07T11:33:18.946Z,1.00
2023-03-07T11:36:01.616Z,3.20
2023-03-07T11:38:45.155Z,4.00
2023-03-07T11:41:36.638Z,3.60
2023-03-07T11:44:55.278Z,4.40
2023-03-07T11:47:50.277Z,0.20
2023-03-07T11:50:34.359Z,0.00
2023-03-07T11:53:05.156Z,2.20
2023-03-07T11:56:10.081Z,2.20
2023-03-07T11:58:49.727Z,1.80
2023-03-07T12:01:23.524Z,1.40
2023-03-07T12:04:06.762Z,2.00
2023-03-07T12:07:00.041Z,3.60
2023-03-07T12:09:38.500Z,2.60
2023-03-07T12:12:08.966Z,0.00
2023-03-07T12:15:26.083Z,1.40
2023-03-07T12:18:26.650Z,0.00
2023-03-07T12:21:12.433Z,3.80
2023-03-07T12:23:53.861Z,3.00
2023-03-07T12:26:27.246Z,1.20
2023-03-07T12:28:58.654Z,2.20
2023-03-07T12:31:39.712Z,2.60
2023-03-07T12:34:10.517Z,3.60
2023-03-07T12:39:58.734Z,1.40
2023-03-07T12:42:41.120Z,3.00
2023-03-07T12:45:21.365Z,3.40
2023-03-07T12:48:18.740Z,0.60
2023-03-07T12:51:15.430Z,3.00
2023-03-07T12:53:55.447Z,2.20
2023-03-07T12:56:46.934Z,0.60
2023-03-07T12:59:22.814Z,3.20
2023-03-07T13:02:11.289Z,0.00
2023-03-07T13:04:43.583Z,1.80
2023-03-07T13:07:11.274Z,3.60
2023-03-07T13:09:49.218Z,0.00
2023-03-07T13:12:17.294Z,3.80
2023-03-07T13:14:47.394Z,0.00
2023-03-07T13:17:38.441Z,1.00
2023-03-07T13:20:28.214Z,3.00
2023-03-07T13:23:00.617Z,0.80
2023-03-07T13:25:49.279Z,3.00
2023-03-07T13:28:38.727Z,0.00
2023-03-07T13:31:28.047Z,4.40
2023-03-07T13:33:55.967Z,5.20
2023-03-07T13:36:49.976Z,2.20
2023-03-07T13:39:38.986Z,2.60
2023-03-07T13:42:45.438Z,2.20
2023-03-07T13:45:39.616Z,3.60
2023-03-07T13:48:33.845Z,1.40
2023-03-07T13:51:01.865Z,4.80
2023-03-07T13:53:37.581Z,3.00
2023-03-07T13:56:28.197Z,3.80
2023-03-07T13:59:00.023Z,1.40
2023-03-07T14:01:41.057Z,2.20
2023-03-07T14:04:41.164Z,1.40
2023-03-07T14:07:14.442Z,1.00
2023-03-07T14:09:48.408Z,3.00
2023-03-07T14:12:19.352Z,3.40
2023-03-07T14:15:16.790Z,3.00
2023-03-07T14:18:11.517Z,3.00
2023-03-07T14:21:11.490Z,1.00
2023-03-07T14:24:16.277Z,0.00
2023-03-07T14:26:49.248Z,3.00
2023-03-07T14:29:19.312Z,1.00
2023-03-07T14:31:47.911Z,0.60
2023-03-07T14:34:36.346Z,1.00
2023-03-07T14:37:12.283Z,0.80
2023-03-07T14:39:46.254Z,3.00
2023-03-07T14:42:16.846Z,3.00
2023-03-07T14:44:57.256Z,1.80
2023-03-07T14:47:43.006Z,1.00
2023-03-07T14:50:15.895Z,1.00
2023-03-07T14:52:45.174Z,1.00
2023-03-07T14:55:22.324Z,1.00
2023-03-07T14:57:53.396Z,1.00
2023-03-07T15:00:20.750Z,1.00
2023-03-07T15:02:54.064Z,2.50
2023-03-07T15:05:30.363Z,1.00
2023-03-07T15:07:58.272Z,0.40
2023-03-07T15:10:43.866Z,0.40
2023-03-07T15:13:33.542Z,1.00
2023-03-07T15:16:07.204Z,0.00
2023-03-07T15:19:10.089Z,1.00
2023-03-07T15:21:48.353Z,1.00
2023-03-07T15:24:24.936Z,0.00
2023-03-07T15:26:55.869Z,0.00
2023-03-07T15:29:26.557Z,1.00
2023-03-07T15:31:58.884Z,1.00
2023-03-07T15:34:33.774Z,0.25
2023-03-07T15:37:24.355Z,0.00
2023-03-07T15:40:10.843Z,1.50
2023-03-07T15:43:04.956Z,0.00
2023-03-07T15:45:41.229Z,0.00
2023-03-07T15:48:25.749Z,1.00
2023-03-07T15:50:59.596Z,1.00
2023-03-07T15:53:39.701Z,0.50
2023-03-07T15:56:21.493Z,1.00
2023-03-07T15:58:50.082Z,1.00
2023-03-07T16:01:21.852Z,0.75
2023-03-07T16:04:01.353Z,0.75
2023-03-07T16:06:45.624Z,0.25
2023-03-07T16:09:15.728Z,1.00
2023-03-07T16:11:44.016Z,1.00
2023-03-07T16:14:26.692Z,1.00
2023-03-07T16:16:59.282Z,1.00
2023-03-07T16:19:27.340Z,1.00
2023-03-07T16:21:54.983Z,0.50
2023-03-07T16:24:22.545Z,0.00
2023-03-07T16:26:51.622Z,2.00
2023-03-07T16:29:22.046Z,0.00
2023-03-07T16:31:49.943Z,0.75
2023-03-07T16:34:23.235Z,0.75
2023-03-07T16:36:50.784Z,0.75
2023-03-07T16:39:18.848Z,1.00
2023-03-07T16:41:50.301Z,0.00
2023-03-07T16:44:20.288Z,0.50
2023-03-07T16:47:14.189Z,1.00
2023-03-07T16:49:41.787Z,0.00
2023-03-07T16:52:13.172Z,0.25
2023-03-07T16:54:41.206Z,1.00
2023-03-07T16:57:18.239Z,0.00
2023-03-07T16:59:48.025Z,0.00
2023-03-07T17:02:21.333Z,0.00
2023-03-07T17:04:49.237Z,3.00
2023-03-07T17:07:22.196Z,0.00
2023-03-07T17:09:50.369Z,0.75
2023-03-07T17:12:22.983Z,1.00
2023-03-07T17:14:50.976Z,0.75
2023-03-07T17:17:29.143Z,1.00
2023-03-07T17:19:57.349Z,2.50
2023-03-07T17:22:25.167Z,0.00
2023-03-07T17:24:52.766Z,1.00
2023-03-07T17:27:20.969Z,2.00
2023-03-07T17:29:53.078Z,5.00
2023-03-07T17:32:21.786Z,7.00
2023-03-07T17:34:49.656Z,2.25
2023-03-07T17:37:17.570Z,1.75
2023-03-07T17:39:46.079Z,3.00
2023-03-07T17:42:13.871Z,4.50
2023-03-07T17:44:41.931Z,7.50
2023-03-07T17:47:09.563Z,7.00
2023-03-07T17:49:39.341Z,3.75
2023-03-07T17:52:08.007Z,4.00
2023-03-07T17:54:35.813Z,7.00
2023-03-07T17:57:03.618Z,8.00
2023-03-07T17:59:33.009Z,8.33
2023-03-07T18:02:00.850Z,3.75
2023-03-07T18:04:31.405Z,4.00
2023-03-07T18:07:00.626Z,6.50
2023-03-07T18:09:28.298Z,4.50
2023-03-07T18:11:56.046Z,1.00
2023-03-07T18:14:24.064Z,6.75
2023-03-07T18:16:52.085Z,11.50
2023-03-07T18:19:26.203Z,3.25
2023-03-07T18:21:55.641Z,6.00
2023-03-07T18:24:28.547Z,10.50
2023-03-07T18:26:59.492Z,11.00
2023-03-07T18:29:28.486Z,4.50
2023-03-07T18:31:56.987Z,2.00
2023-03-07T18:34:25.292Z,8.00
2023-03-07T18:36:54.595Z,6.50
2023-03-07T18:39:23.674Z,7.75
2023-03-07T18:41:51.765Z,10.75
2023-03-07T18:44:20.015Z,1.00
2023-03-07T18:46:47.783Z,10.25
2023-03-07T18:49:16.446Z,6.25
2023-03-07T18:51:46.218Z,4.00
2023-03-07T18:54:14.482Z,12.00
2023-03-07T18:56:45.165Z,7.75
2023-03-07T18:59:13.042Z,3.75
2023-03-07T19:01:40.739Z,9.75
2023-03-07T19:04:09.443Z,6.00
2023-03-07T19:06:39.967Z,3.75
2023-03-07T19:09:13.641Z,5.25
2023-03-07T19:11:41.486Z,11.00
2023-03-07T19:14:09.095Z,7.25
2023-03-07T19:16:37.024Z,7.25
2023-03-07T19:19:05.415Z,6.00
2023-03-07T19:21:35.077Z,3.25
2023-03-07T19:24:05.392Z,3.00
2023-03-07T19:26:33.015Z,6.25
2023-03-07T19:29:00.598Z,7.00
2023-03-07T19:31:31.475Z,10.00
2023-03-07T19:33:59.657Z,6.00
2023-03-07T19:36:29.463Z,1.00
2023-03-07T19:38:59.355Z,6.75
2023-03-07T19:41:28.872Z,7.50
2023-03-07T19:43:57.773Z,3.00
2023-03-07T19:46:25.540Z,6.75
2023-03-07T19:48:53.349Z,5.75
2023-03-07T19:51:25.747Z,6.00
2023-03-07T19:53:56.783Z,4.25
2023-03-07T19:56:30.482Z,8.75
2023-03-07T19:58:59.981Z,6.75
2023-03-07T20:01:28.608Z,6.00
2023-03-07T20:03:57.221Z,6.00
2023-03-07T20:06:30.978Z,3.00
2023-03-07T20:09:00.173Z,9.50
2023-03-07T20:11:30.598Z,6.00
2023-03-07T20:14:00.534Z,4.50
2023-03-07T20:16:29.743Z,3.25
2023-03-07T20:18:59.618Z,3.00
2023-03-07T20:21:28.783Z,9.00
2023-03-07T20:24:00.326Z,3.00
2023-03-07T20:26:31.868Z,9.00
2023-03-07T20:29:00.248Z,8.75
2023-03-07T20:31:28.344Z,5.00
2023-03-07T20:33:59.396Z,8.00
2023-03-07T20:36:29.686Z,3.50
2023-03-07T20:38:59.449Z,6.00
2023-03-07T20:41:32.576Z,4.00
2023-03-07T20:44:03.842Z,3.50
2023-03-07T20:46:32.847Z,4.75
2023-03-07T20:49:02.154Z,6.25
2023-03-07T20:51:32.639Z,9.00
2023-03-07T20:54:05.317Z,5.50
2023-03-07T20:56:35.178Z,9.00
2023-03-07T20:59:03.257Z,3.00
2023-03-07T21:01:32.580Z,16.25
2023-03-07T21:04:06.691Z,6.00
2023-03-07T21:06:39.653Z,3.50
2023-03-07T21:09:10.464Z,5.00
2023-03-07T21:11:40.744Z,10.00
2023-03-07T21:14:08.803Z,6.75
2023-03-07T21:16:36.515Z,2.00
2023-03-07T21:19:05.986Z,1.25
2023-03-07T21:21:35.130Z,6.75
2023-03-07T21:24:03.584Z,5.00
2023-03-07T21:26:33.840Z,5.50
2023-03-07T21:29:01.727Z,12.00
2023-03-07T21:31:33.904Z,4.50
2023-03-07T21:34:03.689Z,8.50
2023-03-07T21:36:31.826Z,11.50
2023-03-07T21:39:00.407Z,6.50
2023-03-07T21:41:28.129Z,9.00
2023-03-07T21:43:57.344Z,9.50
2023-03-07T21:46:26.179Z,5.75
2023-03-07T21:48:54.057Z,2.75
2023-03-07T21:51:21.960Z,5.00
2023-03-07T21:53:49.687Z,7.00
2023-03-07T21:56:17.979Z,5.50
2023-03-07T21:58:49.417Z,8.50
2023-03-07T22:01:22.303Z,6.50
2023-03-07T22:03:55.781Z,6.50
2023-03-07T22:06:24.331Z,12.50
2023-03-07T22:08:52.096Z,3.00
2023-03-07T22:11:19.972Z,9.25
2023-03-07T22:13:47.454Z,7.00
2023-03-07T22:16:17.508Z,6.00
2023-03-07T22:18:45.682Z,9.25
2023-03-07T22:21:15.116Z,9.00
2023-03-07T22:23:43.059Z,7.00
2023-03-07T22:26:12.338Z,9.00
2023-03-07T22:28:41.299Z,9.25
2023-03-07T22:31:12.277Z,10.50
2023-03-07T22:33:41.455Z,11.50
2023-03-07T22:36:13.096Z,8.50
2023-03-07T22:38:43.071Z,6.00
2023-03-07T22:41:14.419Z,7.00
2023-03-07T22:43:42.598Z,4.00
2023-03-07T22:46:10.609Z,7.50
2023-03-07T22:48:39.281Z,7.50
2023-03-07T22:51:16.950Z,6.00
2023-03-07T22:53:44.960Z,5.25
2023-03-07T22:56:24.258Z,10.25
2023-03-07T22:58:52.042Z,10.50
2023-03-07T23:01:25.210Z,9.25
2023-03-07T23:03:55.337Z,6.00
2023-03-07T23:06:24.613Z,8.75
2023-03-07T23:08:53.670Z,7.50
2023-03-07T23:11:23.367Z,4.50
2023-03-07T23:13:51.230Z,5.00
2023-03-07T23:16:24.938Z,4.25
2023-03-07T23:18:55.172Z,10.25
2023-03-07T23:21:26.328Z,1.00
2023-03-07T23:23:55.089Z,6.00
2023-03-07T23:26:25.991Z,6.75
2023-03-07T23:28:54.116Z,6.75
2023-03-07T23:31:31.003Z,4.75
2023-03-07T23:34:01.241Z,5.25
2023-03-07T23:36:30.979Z,6.75
2023-03-07T23:38:59.432Z,7.50
2023-03-07T23:41:27.653Z,6.25
2023-03-07T23:43:57.173Z,6.75
2023-03-07T23:46:25.984Z,6.75
2023-03-07T23:48:54.379Z,3.50
2023-03-07T23:51:22.504Z,9.00
2023-03-07T23:53:50.089Z,6.50
2023-03-07T23:56:17.895Z,9.00
2023-03-07T23:58:48.458Z,7.00
